Geneva, OH (44041)

8:30 PM EDT on August 27, 2015 (GMT -0400)
Swan/Liberty-Geneva | | Change Station
CLOSE
Current Station
Personal Weather Station
Location: Geneva, OH
Elevation: 686 ft
Nearby Weather Stations

Elev 686 ft 41.80 °N, 80.95 °W | Updated 33 seconds ago

Clear
Clear
61.7 °F
Feels Like 61.7 °F
N
0.0
Wind Variable Wind from SSE
Gusts 0.0 mph

Today
High -- | Low -- °F
--% Chance of Precip.
Yesterday
High -- | Low -- °F
Precip. -- in
6:44 AM 8:05 PM
Waxing Gibbous, 95% visible
Pressure 30.18 in
Visibility 10.0 miles
Clouds Clear
Dew Point 59 °F
Humidity 90%
Rainfall 0.00 in
Snow Depth Not available.
UV 0.0 out of 12
Pollen 9.40 out of 12
Air Quality Not available.
Flu Activity Not available.
METAR KHZY 272353Z AUTO 31003KT 10SM CLR 16/13 A3018 RMK AO2 SLP219 T01610128 10200 20161 51007
Pressure 30.18 in
Visibility 10.0 miles
Clouds Clear
Dew Point 59 °F
Humidity 90%
Rainfall 0.00 in
Snow Depth Not available.
UV 0.0 out of 12
Pollen 9.40 out of 12
Air Quality Not available.
Flu Activity Not available.
METAR KHZY 272353Z AUTO 31003KT 10SM CLR 16/13 A3018 RMK AO2 SLP219 T01610128 10200 20161 51007

10-Day Weather Forecast

×

Almanac

Astronomy

Aug. 27, 2015 Rise Set
Actual Time
Civil Twilight
Nautical Twilight
Astronomical Twilight
Moon
Length of Visible Light
Length of Day
Tomorrow will be .
, % of the Moon is Illuminated

Today's Extremes

State Highs State Lows

Community

WunderPhotos

Upload Photos

1,850,276 photos uploaded!

WunderBlogs® & News

Nearby

Air Quality

  Air Quality AQ Index Pollutant
Not available.

Snow Depth

Station Depth Elevation

Earthquake Activity

City Distance Mag. Time & Date
Minimum magnitude displayed is 2.5.

Coastal Water Temperatures

Place Temperature

Stations

Nearby Weather Stations

Station Location Temp. Windchill Dew Point Humidity Wind Precip. Elev Updated Type